Time;durP1;ratioP1;P1;durP2;ratioP2;P2;SDS_P1;SDS_P2;PMS_P1;PMS_P2;Temp;Humidity;BMP_temperature;BMP_pressure;BME280_temperature;BME280_humidity;BME280_pressure;Samples;Min_cycle;Max_cycle;Signal;HPM_P1;HPM_P2
2022/05/29 00:02:13;;;;;;;6.80;1.83;;;;;;;9.39;100.00;101989.09;5150099;27;20058;-85
2022/05/29 00:04:40;;;;;;;6.95;1.58;;;;;;;9.60;100.00;102024.56;5143570;27;20073;-85
2022/05/29 00:07:13;;;;;;;9.00;2.38;;;;;;;9.37;100.00;102037.06;5149011;27;20046;-84
2022/05/29 00:09:42;;;;;;;8.80;1.83;;;;;;;9.17;100.00;102011.16;5144217;27;20181;-84
2022/05/29 00:12:11;;;;;;;9.77;2.00;;;;;;;9.02;100.00;102013.06;5154846;27;20054;-85
2022/05/29 00:14:40;;;;;;;8.30;1.95;;;;;;;9.40;100.00;102021.34;5153907;27;20042;-84
2022/05/29 00:17:08;;;;;;;7.65;1.52;;;;;;;9.08;100.00;102007.78;5151816;27;20039;-85
2022/05/29 00:19:36;;;;;;;5.50;1.60;;;;;;;9.10;100.00;102031.25;5140010;27;20051;-85
2022/05/29 00:22:03;;;;;;;6.75;1.50;;;;;;;9.34;100.00;102044.94;5155193;27;20523;-84
2022/05/29 00:24:30;;;;;;;14.15;2.38;;;;;;;9.05;100.00;102009.56;5149980;27;20043;-84
2022/05/29 00:26:57;;;;;;;9.70;1.70;;;;;;;8.63;100.00;101957.75;5138941;27;20864;-84
2022/05/29 00:29:24;;;;;;;9.20;1.58;;;;;;;9.05;100.00;102018.25;5142301;27;20051;-84
2022/05/29 00:31:53;;;;;;;7.30;1.70;;;;;;;9.06;100.00;102024.34;5141894;27;20071;-84
2022/05/29 00:34:20;;;;;;;7.32;1.60;;;;;;;8.79;100.00;101983.72;5135647;27;20075;-84
2022/05/29 00:36:47;;;;;;;7.47;1.60;;;;;;;8.93;100.00;101973.97;5150101;27;20061;-84
2022/05/29 00:39:16;;;;;;;8.60;2.00;;;;;;;9.05;100.00;101999.97;5155731;27;20050;-84
2022/05/29 00:41:43;;;;;;;8.38;1.77;;;;;;;9.29;100.00;101988.34;5141437;27;20051;-83
2022/05/29 00:44:29;;;;;;;6.93;1.80;;;;;;;9.27;100.00;102004.94;5155883;27;20042;-84
2022/05/29 00:47:10;;;;;;;10.80;2.10;;;;;;;8.96;100.00;102002.69;5148268;27;20035;-84
2022/05/29 00:49:39;;;;;;;11.23;2.30;;;;;;;9.46;100.00;102029.13;5155535;27;20051;-83
2022/05/29 00:52:25;;;;;;;8.43;1.85;;;;;;;9.31;100.00;102009.25;5155286;27;20134;-84
2022/05/29 00:54:56;;;;;;;9.32;2.40;;;;;;;8.93;100.00;101974.84;5155327;27;20042;-84
2022/05/29 00:57:30;;;;;;;8.52;2.28;;;;;;;9.43;100.00;102027.38;5140897;27;20309;-85
2022/05/29 01:00:01;;;;;;;7.05;1.85;;;;;;;9.52;100.00;102017.72;5142402;27;20136;-84
2022/05/29 01:02:28;;;;;;;10.38;2.17;;;;;;;9.40;100.00;102009.16;5133840;27;20047;-84
2022/05/29 01:04:56;;;;;;;12.77;2.13;;;;;;;9.29;100.00;102006.63;5144296;27;20468;-83
2022/05/29 01:07:25;;;;;;;8.75;2.22;;;;;;;9.52;100.00;102009.88;5143165;27;20058;-84
2022/05/29 01:09:52;;;;;;;13.13;2.38;;;;;;;9.10;100.00;101992.06;5138731;27;20381;-84
2022/05/29 01:12:49;;;;;;;10.38;2.28;;;;;;;9.38;100.00;101986.50;5146189;27;20047;-84
2022/05/29 01:15:41;;;;;;;14.10;3.85;;;;;;;9.72;100.00;102014.81;5134746;27;20043;-84
2022/05/29 01:18:19;;;;;;;11.18;2.10;;;;;;;9.69;100.00;102016.59;5133393;27;20055;-84
2022/05/29 01:21:21;;;;;;;15.13;3.15;;;;;;;9.43;100.00;102011.69;5145170;27;20047;-84
2022/05/29 01:24:09;;;;;;;12.18;2.50;;;;;;;9.63;100.00;102007.97;5123763;27;20074;-84
2022/05/29 01:26:38;;;;;;;13.57;2.60;;;;;;;9.37;100.00;102005.72;5134294;27;20047;-84
2022/05/29 01:29:10;;;;;;;10.85;2.40;;;;;;;9.44;100.00;102012.59;5132795;27;20051;-84
2022/05/29 01:31:54;;;;;;;10.57;1.92;;;;;;;9.39;100.00;101991.72;5139783;27;20051;-84
2022/05/29 01:34:24;;;;;;;;;;;;;;;9.62;100.00;102004.50;5141179;27;20039;-84
2022/05/29 01:36:50;;;;;;;13.30;2.42;;;;;;;9.59;100.00;102004.53;5146015;27;19923;-84
2022/05/29 01:39:27;;;;;;;8.52;1.95;;;;;;;9.26;100.00;102004.09;5137557;27;20121;-84
2022/05/29 01:41:58;;;;;;;11.95;2.45;;;;;;;9.07;100.00;102006.03;5154912;27;20054;-84
2022/05/29 01:44:49;;;;;;;11.90;3.22;;;;;;;9.01;100.00;101987.81;5154994;27;20130;-84
2022/05/29 01:47:23;;;;;;;12.43;2.33;;;;;;;8.79;100.00;101987.16;5144058;27;20039;-83
2022/05/29 01:49:59;;;;;;;17.80;2.80;;;;;;;8.43;100.00;101994.47;5145742;27;20049;-84
2022/05/29 01:52:32;;;;;;;11.15;2.20;;;;;;;8.40;100.00;101965.75;5132956;27;20046;-84
2022/05/29 01:55:20;;;;;;;9.02;2.03;;;;;;;8.39;100.00;101958.78;5145743;27;20074;-84
2022/05/29 01:57:52;;;;;;;13.27;2.58;;;;;;;8.33;100.00;102004.09;5142303;27;20043;-84
2022/05/29 02:00:22;;;;;;;11.50;1.98;;;;;;;8.35;100.00;101978.84;5132661;27;20053;-84
2022/05/29 02:03:06;;;;;;;11.50;2.40;;;;;;;8.38;100.00;101995.38;5133062;27;20382;-84
2022/05/29 02:05:40;;;;;;;17.20;2.47;;;;;;;8.47;100.00;101990.94;5144940;27;20540;-82
2022/05/29 02:08:15;;;;;;;7.22;1.85;;;;;;;8.51;100.00;101982.22;5143669;27;20049;-82
2022/05/29 02:10:45;;;;;;;12.27;2.30;;;;;;;8.73;100.00;101982.88;5140253;27;20055;-82
2022/05/29 02:13:25;;;;;;;6.40;1.98;;;;;;;8.31;100.00;101969.31;5132542;27;20051;-83
2022/05/29 02:16:18;;;;;;;9.48;2.17;;;;;;;8.63;100.00;101967.31;5145913;27;20051;-83
2022/05/29 02:18:54;;;;;;;14.10;2.47;;;;;;;9.06;100.00;101975.56;5145937;27;20408;-83
2022/05/29 02:21:50;;;;;;;14.85;2.50;;;;;;;9.24;100.00;101976.22;5150919;27;20053;-83
2022/05/29 02:24:22;;;;;;;12.15;2.38;;;;;;;9.08;100.00;101970.31;5132026;27;20051;-83
2022/05/29 02:26:55;;;;;;;10.05;1.75;;;;;;;9.19;100.00;101972.78;5134449;27;20480;-82
2022/05/29 02:29:22;;;;;;;15.00;2.22;;;;;;;9.20;100.00;101962.31;5140428;27;20051;-84
2022/05/29 02:32:00;;;;;;;13.98;1.98;;;;;;;9.45;100.00;101972.47;5136482;27;20043;-84
2022/05/29 02:34:39;;;;;;;12.27;2.17;;;;;;;9.28;100.00;101962.25;5153997;27;20503;-84
2022/05/29 02:37:22;;;;;;;12.93;2.53;;;;;;;9.40;100.00;101963.81;5150561;27;20615;-84
2022/05/29 02:40:02;;;;;;;8.33;2.40;;;;;;;9.37;100.00;101959.50;5139106;27;20057;-84
2022/05/29 02:42:42;;;;;;;12.20;3.22;;;;;;;9.36;100.00;101965.63;5152492;27;20050;-84
2022/05/29 02:45:24;;;;;;;12.80;2.65;;;;;;;9.39;100.00;101952.50;5153436;27;20479;-84
2022/05/29 02:47:56;;;;;;;12.18;2.78;;;;;;;9.67;100.00;101960.00;5147039;27;20050;-84
2022/05/29 02:50:31;;;;;;;15.23;2.72;;;;;;;9.39;100.00;101934.22;5153353;27;20070;-85
2022/05/29 02:53:05;;;;;;;14.00;2.72;;;;;;;9.40;100.00;101951.63;5142552;27;20050;-84
2022/05/29 02:55:31;;;;;;;13.05;2.25;;;;;;;9.32;100.00;101940.41;5146752;27;20049;-85
2022/05/29 02:58:01;;;;;;;12.93;2.35;;;;;;;9.46;100.00;101951.53;5145819;27;20524;-84
2022/05/29 03:00:48;;;;;;;13.98;3.17;;;;;;;9.06;100.00;101925.91;5151565;27;20058;-84
2022/05/29 03:03:33;;;;;;;13.20;2.08;;;;;;;9.47;100.00;101929.75;5151039;27;20051;-84
2022/05/29 03:06:26;;;;;;;10.60;2.22;;;;;;;9.12;100.00;101951.97;5145887;27;20070;-84
2022/05/29 03:09:08;;;;;;;14.57;2.65;;;;;;;8.68;100.00;101914.19;5143980;27;20484;-84
2022/05/29 03:11:45;;;;;;;11.93;2.70;;;;;;;8.87;100.00;101937.47;5132189;27;20051;-84
2022/05/29 03:14:21;;;;;;;14.65;3.08;;;;;;;8.64;100.00;101943.81;5152479;27;20066;-84
2022/05/29 03:16:56;;;;;;;12.15;3.28;;;;;;;8.98;100.00;101945.16;5133169;27;20046;-84
2022/05/29 03:19:32;;;;;;;12.70;2.40;;;;;;;9.04;100.00;101939.88;5134460;27;20040;-84
2022/05/29 03:22:13;;;;;;;10.25;2.28;;;;;;;9.13;100.00;101922.34;5149239;27;20049;-84
2022/05/29 03:24:59;;;;;;;14.85;3.45;;;;;;;9.11;100.00;101934.56;5141164;27;20049;-85
2022/05/29 03:27:37;;;;;;;15.65;2.63;;;;;;;9.34;100.00;101928.19;5132677;27;20039;-84
2022/05/29 03:30:06;;;;;;;14.70;2.70;;;;;;;9.02;100.00;101932.06;5132124;27;20039;-84
2022/05/29 03:32:35;;;;;;;16.55;2.67;;;;;;;8.71;100.00;101923.69;5143885;27;20408;-84
2022/05/29 03:35:17;;;;;;;12.13;2.50;;;;;;;9.06;100.00;101922.44;5149184;27;20066;-84
2022/05/29 03:37:45;;;;;;;15.20;2.85;;;;;;;9.01;100.00;101911.19;5152311;27;20484;-84
2022/05/29 03:40:12;;;;;;;15.63;2.50;;;;;;;8.88;100.00;101889.56;5152766;27;20050;-84
2022/05/29 03:42:38;;;;;;;16.73;3.40;;;;;;;8.93;100.00;101895.63;5146628;27;20047;-84
2022/05/29 03:45:06;;;;;;;16.23;2.80;;;;;;;8.97;100.00;101904.28;5153763;27;20388;-84
2022/05/29 03:47:33;;;;;;;23.67;3.53;;;;;;;8.99;100.00;101900.75;5154517;27;20047;-84
2022/05/29 03:49:59;;;;;;;11.90;3.65;;;;;;;8.80;100.00;101879.22;5157250;27;20051;-84
2022/05/29 03:52:26;;;;;;;12.52;2.83;;;;;;;8.82;100.00;101879.19;5155881;27;20043;-84
2022/05/29 03:54:53;;;;;;;16.90;3.78;;;;;;;8.34;100.00;101874.50;5156773;27;20125;-83
2022/05/29 03:57:19;;;;;;;13.05;2.20;;;;;;;8.70;100.00;101873.25;5144632;27;20039;-84
2022/05/29 03:59:46;;;;;;;15.65;2.83;;;;;;;8.80;100.00;101879.22;5135965;27;20047;-84
2022/05/29 04:02:13;;;;;;;10.88;2.35;;;;;;;8.94;100.00;101886.88;5138280;27;20050;-83
2022/05/29 04:04:39;;;;;;;14.88;2.70;;;;;;;8.52;100.00;101876.94;5139526;27;20047;-83
2022/05/29 04:07:06;;;;;;;15.27;3.13;;;;;;;8.73;100.00;101881.03;5147978;27;20038;-84
2022/05/29 04:12:18;;;;;;;14.48;2.50;;;;;;;8.95;100.00;101887.75;5135984;27;20400;-84
2022/05/29 04:14:45;;;;;;;13.88;3.22;;;;;;;8.79;100.00;101887.94;5143455;27;20047;-84
2022/05/29 04:17:17;;;;;;;16.00;2.92;;;;;;;9.10;100.00;101903.22;5145450;27;20053;-84
2022/05/29 04:19:44;;;;;;;13.68;2.92;;;;;;;8.74;100.00;101861.88;5148164;27;20452;-84
2022/05/29 04:22:17;;;;;;;14.05;2.80;;;;;;;8.82;100.00;101885.28;5135111;27;20481;-84
2022/05/29 04:24:44;;;;;;;19.73;4.22;;;;;;;8.70;100.00;101885.44;5142430;27;20259;-84
2022/05/29 04:27:13;;;;;;;12.13;2.45;;;;;;;8.89;100.00;101897.41;5147197;27;20046;-84
2022/05/29 04:29:40;;;;;;;11.23;2.85;;;;;;;8.89;100.00;101889.56;5153347;27;20069;-83
2022/05/29 04:34:56;;;;;;;14.18;3.10;;;;;;;8.89;100.00;101873.88;5153028;27;20145;-84
2022/05/29 04:37:24;;;;;;;13.23;2.70;;;;;;;8.76;100.00;101847.94;5153741;27;20049;-84
2022/05/29 04:39:51;;;;;;;12.80;2.80;;;;;;;9.01;100.00;101858.94;5152205;27;20373;-83
2022/05/29 04:42:17;;;;;;;15.98;2.80;;;;;;;9.24;100.00;101885.63;5145188;27;20054;-84
2022/05/29 04:44:44;;;;;;;11.55;2.53;;;;;;;9.04;100.00;101864.13;5155123;27;20479;-83
2022/05/29 04:47:11;;;;;;;11.02;2.70;;;;;;;8.93;100.00;101841.63;5151209;27;20042;-84
2022/05/29 04:49:38;;;;;;;13.05;2.10;;;;;;;9.19;100.00;101852.59;5138849;27;20475;-84
2022/05/29 04:52:07;;;;;;;12.27;2.55;;;;;;;9.34;100.00;101882.88;5154714;27;20050;-84
2022/05/29 04:54:35;;;;;;;17.85;3.28;;;;;;;9.14;100.00;101870.97;5154638;27;20563;-84
2022/05/29 04:57:02;;;;;;;16.85;2.75;;;;;;;9.16;100.00;101865.72;5136313;27;20036;-84
2022/05/29 04:59:28;;;;;;;13.85;2.67;;;;;;;9.03;100.00;101878.94;5139470;27;20054;-84
2022/05/29 05:01:58;;;;;;;16.90;3.00;;;;;;;8.89;100.00;101839.94;5151269;27;20043;-84
2022/05/29 05:04:25;;;;;;;21.35;3.25;;;;;;;8.82;100.00;101824.34;5142142;27;20047;-84
2022/05/29 05:06:58;;;;;;;13.25;2.35;;;;;;;9.29;100.00;101875.09;5135139;27;20038;-84
2022/05/29 05:09:26;;;;;;;19.77;4.15;;;;;;;9.37;100.00;101872.41;5142224;27;20053;-84
2022/05/29 05:11:54;;;;;;;12.52;2.55;;;;;;;9.36;100.00;101881.13;5149524;27;20050;-84
2022/05/29 05:14:22;;;;;;;9.50;2.35;;;;;;;9.09;100.00;101872.78;5155968;27;20053;-84
2022/05/29 05:16:49;;;;;;;13.07;3.03;;;;;;;9.25;100.00;101842.91;5150316;27;20043;-83
2022/05/29 05:19:16;;;;;;;8.27;2.28;;;;;;;9.45;100.00;101857.44;5147566;27;20043;-84
2022/05/29 05:21:43;;;;;;;13.05;4.47;;;;;;;9.59;100.00;101857.25;5154564;27;20043;-84
2022/05/29 05:24:11;;;;;;;12.45;2.50;;;;;;;9.71;100.00;101858.81;5154345;27;20051;-83
2022/05/29 05:26:38;;;;;;;12.73;2.55;;;;;;;9.32;100.00;101834.09;5149937;27;20624;-83
2022/05/29 05:29:05;;;;;;;17.00;2.28;;;;;;;9.47;100.00;101860.91;5155078;27;20059;-83
2022/05/29 05:31:32;;;;;;;10.95;2.05;;;;;;;9.46;100.00;101809.53;5146707;27;20057;-84
2022/05/29 05:33:59;;;;;;;9.32;2.17;;;;;;;9.82;100.00;101836.81;5142240;27;20055;-84
2022/05/29 05:36:26;;;;;;;10.93;1.98;;;;;;;10.00;100.00;101837.38;5138854;27;20043;-84
2022/05/29 05:38:53;;;;;;;16.85;2.90;;;;;;;9.61;100.00;101842.38;5144820;27;20039;-84
2022/05/29 05:41:21;;;;;;;11.48;2.00;;;;;;;9.77;100.00;101862.16;5139669;27;20484;-83
2022/05/29 05:43:48;;;;;;;8.63;1.90;;;;;;;10.05;100.00;101835.53;5145894;27;20069;-84
2022/05/29 05:46:17;;;;;;;9.05;2.53;;;;;;;9.57;100.00;101830.25;5149425;27;20082;-84
2022/05/29 05:48:43;;;;;;;8.82;1.95;;;;;;;9.85;100.00;101841.13;5138525;27;20047;-84
2022/05/29 05:51:12;;;;;;;10.40;2.13;;;;;;;9.77;100.00;101859.56;5148035;27;20683;-84
2022/05/29 05:53:41;;;;;;;10.55;2.20;;;;;;;10.14;100.00;101856.31;5145271;27;20050;-83
2022/05/29 05:56:11;;;;;;;12.30;1.90;;;;;;;10.34;100.00;101849.88;5142946;27;20062;-84
2022/05/29 05:58:39;;;;;;;6.93;1.73;;;;;;;10.53;100.00;101843.41;5148276;27;20038;-84
2022/05/29 06:01:11;;;;;;;9.63;2.10;;;;;;;10.57;100.00;101852.06;5144177;27;20058;-85
2022/05/29 06:03:39;;;;;;;9.77;2.55;;;;;;;10.10;100.00;101836.34;5149146;27;20073;-84
2022/05/29 06:06:06;;;;;;;13.88;2.67;;;;;;;10.75;100.00;101845.59;5139611;27;20051;-84
2022/05/29 06:08:34;;;;;;;9.18;2.00;;;;;;;11.73;100.00;101817.13;5148236;27;20448;-85
2022/05/29 06:11:00;;;;;;;9.73;1.90;;;;;;;12.58;100.00;101848.19;5147075;27;20058;-85
2022/05/29 06:13:28;;;;;;;10.77;2.13;;;;;;;12.80;100.00;101822.16;5152351;27;20047;-85
2022/05/29 06:15:59;;;;;;;15.35;2.83;;;;;;;12.63;100.00;101825.28;5137936;27;20057;-88
2022/05/29 06:18:27;;;;;;;7.10;1.90;;;;;;;11.38;100.00;101834.59;5143152;27;20446;-81
2022/05/29 06:21:04;;;;;;;12.15;2.45;;;;;;;11.64;100.00;101851.47;5150895;27;20063;-82
2022/05/29 06:23:33;;;;;;;8.10;2.03;;;;;;;12.29;100.00;101829.72;5144672;27;20055;-81
2022/05/29 06:26:03;;;;;;;15.88;2.42;;;;;;;12.68;100.00;101826.00;5137644;27;20047;-81
2022/05/29 06:28:30;;;;;;;3.70;1.30;;;;;;;13.21;100.00;101822.66;5139258;27;20047;-81
2022/05/29 06:30:57;;;;;;;7.43;1.75;;;;;;;13.04;100.00;101823.19;5145827;27;20471;-81
2022/05/29 06:33:26;;;;;;;10.05;2.30;;;;;;;13.16;100.00;101822.81;5145774;27;20495;-81
2022/05/29 06:35:53;;;;;;;11.02;2.10;;;;;;;13.58;100.00;101821.50;5144197;27;20090;-82
2022/05/29 06:38:19;;;;;;;8.10;1.63;;;;;;;13.30;100.00;101817.13;5145314;27;20042;-82
2022/05/29 06:40:49;;;;;;;12.23;2.20;;;;;;;13.23;100.00;101815.59;5140890;27;20039;-81
2022/05/29 06:43:16;;;;;;;11.70;1.77;;;;;;;12.93;100.00;101805.13;5140855;27;20177;-81
2022/05/29 06:45:56;;;;;;;9.80;1.52;;;;;;;13.42;100.00;101800.97;5140728;27;20371;-82
2022/05/29 06:48:23;;;;;;;10.32;1.90;;;;;;;13.65;100.00;101800.22;5137030;27;20038;-81
2022/05/29 06:50:49;;;;;;;9.05;1.65;;;;;;;14.31;100.00;101788.28;5142982;27;20054;-81
2022/05/29 06:53:16;;;;;;;9.98;1.85;;;;;;;14.41;99.04;101790.53;5138849;27;20054;-80
2022/05/29 06:55:53;;;;;;;10.15;2.08;;;;;;;14.72;95.21;101784.13;5140919;27;20047;-80
2022/05/29 06:58:22;;;;;;;8.55;1.80;;;;;;;15.10;88.13;101784.44;5140559;27;20053;-80
2022/05/29 07:09:10;;;;;;;7.40;1.60;;;;;;;13.70;81.31;101786.03;5138709;27;20047;-80
2022/05/29 07:11:44;;;;;;;5.30;1.10;;;;;;;14.07;76.98;101819.00;5142942;27;20053;-80
2022/05/29 07:14:11;;;;;;;7.93;1.58;;;;;;;13.75;79.61;101770.94;5143759;27;20042;-80
2022/05/29 07:16:38;;;;;;;8.13;1.48;;;;;;;13.62;79.96;101775.78;5140508;27;20054;-80
2022/05/29 07:19:07;;;;;;;6.45;1.88;;;;;;;12.84;80.63;101774.72;5140040;27;20038;-80
2022/05/29 07:21:39;;;;;;;5.03;1.27;;;;;;;13.70;80.82;101767.59;5159409;27;20039;-80
2022/05/29 07:24:07;;;;;;;7.13;1.48;;;;;;;13.09;80.53;101758.19;5148126;27;20050;-80
2022/05/29 07:26:35;;;;;;;6.53;1.30;;;;;;;13.75;82.32;101763.91;5142662;27;20054;-81
2022/05/29 07:29:02;;;;;;;6.18;1.50;;;;;;;13.29;80.61;101750.47;5148539;27;20051;-80
2022/05/29 07:31:29;;;;;;;5.25;1.30;;;;;;;13.93;80.04;101748.38;5137443;27;20053;-81
2022/05/29 07:33:56;;;;;;;12.65;1.88;;;;;;;14.13;78.96;101752.91;5151236;27;20057;-80
2022/05/29 07:36:26;;;;;;;6.63;1.50;;;;;;;14.04;78.58;101715.50;5143588;27;20710;-80
2022/05/29 07:38:53;;;;;;;8.30;1.30;;;;;;;14.12;74.72;101723.09;5142177;27;20043;-80
2022/05/29 07:44:05;;;;;;;5.03;1.52;;;;;;;14.51;73.11;101735.69;5147163;27;20039;-80
2022/05/29 07:46:32;;;;;;;5.50;1.13;;;;;;;13.95;70.74;101730.75;5143897;27;20055;-80
2022/05/29 07:48:59;;;;;;;3.58;1.00;;;;;;;15.31;71.46;101731.69;5146949;27;20050;-80
2022/05/29 07:51:25;;;;;;;6.90;1.55;;;;;;;15.45;70.76;101717.94;5147124;27;20453;-81
2022/05/29 07:53:52;;;;;;;6.45;1.58;;;;;;;15.14;73.71;101713.94;5147757;27;20043;-81
2022/05/29 07:56:24;;;;;;;8.60;1.63;;;;;;;14.78;76.07;101722.41;5146492;27;20039;-80
2022/05/29 07:58:50;;;;;;;8.90;1.60;;;;;;;15.42;75.05;101713.63;5143778;27;20047;-81
2022/05/29 08:01:19;;;;;;;5.25;1.20;;;;;;;14.76;74.77;101705.78;5146893;27;20051;-80
2022/05/29 08:03:48;;;;;;;8.63;1.23;;;;;;;14.87;75.27;101731.72;5145303;27;20058;-80
2022/05/29 08:06:15;;;;;;;7.28;1.45;;;;;;;14.53;77.79;101723.31;5145524;27;20079;-81
2022/05/29 08:08:42;;;;;;;6.05;1.70;;;;;;;15.06;73.34;101713.38;5145398;27;20043;-82
2022/05/29 08:11:17;;;;;;;7.45;1.48;;;;;;;14.73;74.52;101695.34;5140427;27;20397;-81
2022/05/29 08:13:45;;;;;;;5.07;1.10;;;;;;;15.06;75.84;101716.03;5142703;27;20055;-80
2022/05/29 08:16:15;;;;;;;10.38;1.60;;;;;;;14.57;74.19;101701.22;5147897;27;20118;-85
2022/05/29 08:18:44;;;;;;;7.15;1.20;;;;;;;14.04;77.53;101722.50;5146631;27;20058;-81
2022/05/29 08:21:10;;;;;;;6.20;1.30;;;;;;;14.10;76.24;101700.38;5146551;27;20042;-81
2022/05/29 08:23:38;;;;;;;7.57;1.52;;;;;;;14.48;74.94;101717.34;5144885;27;20484;-81
2022/05/29 08:31:35;;;;;;;10.43;1.58;;;;;;;15.13;73.65;101689.31;5148021;27;20142;-81
2022/05/29 08:34:02;;;;;;;7.53;1.20;;;;;;;14.95;73.71;101693.56;5143830;27;20126;-81
2022/05/29 08:36:29;;;;;;;6.15;1.40;;;;;;;14.56;72.32;101693.38;5138651;27;20411;-81
2022/05/29 08:38:56;;;;;;;6.45;1.35;;;;;;;13.59;76.05;101712.72;5144742;27;20034;-81
2022/05/29 08:41:46;;;;;;;4.05;1.30;;;;;;;13.95;76.68;101697.41;5148138;27;20039;-82
2022/05/29 08:44:20;;;;;;;6.75;1.55;;;;;;;14.12;77.47;101688.88;5144761;27;20050;-81
2022/05/29 08:46:52;;;;;;;8.25;1.60;;;;;;;14.97;73.58;101685.59;5139022;27;20137;-81
2022/05/29 08:49:25;;;;;;;3.60;1.10;;;;;;;14.60;72.37;101677.38;5145771;27;20043;-81
2022/05/29 08:52:05;;;;;;;6.43;1.25;;;;;;;15.60;70.03;101676.81;5145020;27;20046;-81
2022/05/29 08:54:50;;;;;;;8.25;1.30;;;;;;;16.12;70.19;101664.78;5148640;27;20047;-81
2022/05/29 08:57:23;;;;;;;4.63;1.50;;;;;;;16.47;68.26;101664.09;5143469;27;20043;-81
2022/05/29 08:59:56;;;;;;;6.50;1.35;;;;;;;15.98;66.36;101674.28;5141334;27;20055;-81
2022/05/29 09:02:41;;;;;;;5.75;1.35;;;;;;;15.80;67.26;101665.41;5137611;27;20123;-81
2022/05/29 09:05:19;;;;;;;3.47;1.10;;;;;;;15.82;68.61;101659.13;5148059;27;20057;-81
2022/05/29 09:07:49;;;;;;;4.80;1.40;;;;;;;16.08;66.75;101652.66;5143246;27;20380;-81
2022/05/29 09:10:42;;;;;;;3.88;1.00;;;;;;;15.27;65.83;101659.72;5150832;27;20046;-81
2022/05/29 09:13:17;;;;;;;4.22;1.15;;;;;;;14.43;68.22;101661.38;5144721;27;20061;-81
2022/05/29 09:15:50;;;;;;;4.47;1.30;;;;;;;14.34;69.46;101661.72;5145407;27;20134;-81
2022/05/29 09:18:24;;;;;;;3.50;1.00;;;;;;;14.74;69.01;101641.72;5148446;27;20057;-81
2022/05/29 09:20:57;;;;;;;6.85;1.50;;;;;;;14.76;68.18;101638.09;5148175;27;20049;-81
2022/05/29 09:23:28;;;;;;;7.25;1.40;;;;;;;14.14;70.65;101642.25;5146501;27;20046;-80
2022/05/29 09:25:56;;;;;;;5.22;1.38;;;;;;;13.74;68.69;101661.31;5152925;27;20544;-81
2022/05/29 09:28:32;;;;;;;5.85;1.42;;;;;;;14.80;69.15;101649.38;5152296;27;20035;-81
2022/05/29 09:31:20;;;;;;;5.43;1.17;;;;;;;14.74;65.36;101618.00;5147225;27;20057;-81
2022/05/29 09:33:48;;;;;;;5.13;1.30;;;;;;;14.13;68.89;101645.81;5144036;27;20047;-80
2022/05/29 09:36:19;;;;;;;5.22;1.40;;;;;;;14.43;68.05;101627.97;5150553;27;20061;-81
2022/05/29 09:38:55;;;;;;;6.47;1.60;;;;;;;15.17;69.15;101626.75;5140720;27;20047;-81
2022/05/29 09:41:41;;;;;;;5.55;1.35;;;;;;;16.35;66.87;101622.38;5147186;27;20057;-84
2022/05/29 09:44:13;;;;;;;11.35;1.60;;;;;;;14.59;69.52;101616.84;5143822;27;20055;-85
2022/05/29 09:46:51;;;;;;;4.72;1.20;;;;;;;14.16;71.72;101642.22;5139736;27;20038;-84
2022/05/29 09:49:45;;;;;;;6.07;1.25;;;;;;;14.19;72.50;101563.94;5139675;27;20047;-89
2022/05/29 09:52:37;;;;;;;4.13;1.08;;;;;;;14.54;74.48;101626.69;5139809;27;20374;-84
2022/05/29 09:55:20;;;;;;;5.75;1.40;;;;;;;14.32;74.91;101611.72;5153970;27;20038;-85
2022/05/29 09:57:59;;;;;;;5.22;1.30;;;;;;;14.09;74.46;101615.25;5149699;27;20415;-85
2022/05/29 10:00:35;;;;;;;3.55;1.05;;;;;;;13.97;77.16;101613.06;5142787;27;20054;-85
2022/05/29 10:03:07;;;;;;;3.47;1.00;;;;;;;14.17;74.27;101591.25;5144279;27;20051;-84
2022/05/29 10:05:38;;;;;;;7.45;1.17;;;;;;;14.03;75.60;101579.47;5147845;27;20051;-85
2022/05/29 10:08:26;;;;;;;4.43;1.30;;;;;;;13.73;79.35;101615.72;5136501;27;20078;-85
2022/05/29 10:10:53;;;;;;;4.15;1.10;;;;;;;13.78;82.30;101599.75;5135315;27;20051;-84
2022/05/29 10:13:50;;;;;;;4.60;1.30;;;;;;;13.63;83.23;101578.38;5140112;27;20050;-84
2022/05/29 10:16:36;;;;;;;3.38;1.20;;;;;;;13.45;89.19;101618.47;5135463;27;20165;-84
2022/05/29 10:19:09;;;;;;;5.03;1.35;;;;;;;13.42;88.30;101613.31;5141861;27;20039;-84
2022/05/29 10:21:50;;;;;;;4.60;1.40;;;;;;;13.63;89.38;101616.97;5137503;27;20047;-84
2022/05/29 10:24:31;;;;;;;3.08;1.08;;;;;;;14.46;85.90;101579.56;5131990;27;20047;-85
2022/05/29 10:27:01;;;;;;;4.95;1.00;;;;;;;14.26;84.72;101595.31;5141181;27;20103;-85
2022/05/29 10:29:33;;;;;;;4.80;1.08;;;;;;;13.47;88.59;101582.44;5150054;27;20055;-84
2022/05/29 10:32:04;;;;;;;4.00;1.30;;;;;;;13.93;85.96;101540.41;5153358;27;20054;-85
2022/05/29 10:34:36;;;;;;;4.65;1.20;;;;;;;13.89;81.39;101552.81;5152683;27;20049;-84
2022/05/29 10:37:34;;;;;;;2.35;0.98;;;;;;;14.02;84.86;101577.78;5144628;27;20415;-85
2022/05/29 10:40:19;;;;;;;4.50;1.15;;;;;;;14.35;84.20;101568.59;5132733;27;20043;-85
2022/05/29 10:42:55;;;;;;;3.45;1.02;;;;;;;14.94;81.95;101567.06;5138563;27;20497;-85
2022/05/29 10:45:32;;;;;;;3.05;0.95;;;;;;;14.45;80.57;101564.69;5139262;27;20047;-86
2022/05/29 10:48:23;;;;;;;3.28;1.20;;;;;;;14.44;83.14;101573.50;5135750;27;20447;-84
2022/05/29 10:51:05;;;;;;;3.78;1.17;;;;;;;14.72;78.16;101560.06;5143756;27;20399;-85
2022/05/29 10:54:09;;;;;;;3.53;1.13;;;;;;;14.52;77.94;101555.59;5138018;27;20053;-85
2022/05/29 10:56:53;;;;;;;4.97;1.30;;;;;;;14.71;78.36;101524.06;5148606;27;20499;-85
2022/05/29 10:59:32;;;;;;;5.95;1.13;;;;;;;15.01;77.79;101547.41;5153630;27;20126;-86
2022/05/29 11:05:58;;;;;;;6.40;1.40;;;;;;;13.53;87.75;101561.19;5135325;27;20049;-84
2022/05/29 11:08:37;;;;;;;7.45;1.40;;;;;;;13.64;89.82;101556.38;5147320;27;20503;-84
2022/05/29 11:11:37;;;;;;;6.95;1.60;;;;;;;13.95;87.66;101530.66;5140216;27;20047;-84
2022/05/29 11:14:04;;;;;;;5.18;1.40;;;;;;;14.24;89.05;101537.41;5146292;27;20618;-83
2022/05/29 11:16:50;;;;;;;6.78;1.60;;;;;;;14.01;87.09;101535.69;5141476;27;20499;-84
2022/05/29 11:19:30;;;;;;;6.85;1.60;;;;;;;14.28;84.02;101524.97;5138044;27;20046;-83
2022/05/29 11:22:17;;;;;;;6.40;1.45;;;;;;;14.78;83.49;101525.56;5151043;27;20202;-84
2022/05/29 11:25:17;;;;;;;4.43;1.20;;;;;;;14.61;78.43;101526.25;5152672;27;20473;-84
2022/05/29 11:28:04;;;;;;;9.20;1.48;;;;;;;15.36;81.16;101524.75;5146147;27;20540;-84
2022/05/29 11:30:55;;;;;;;7.07;1.83;;;;;;;15.22;78.40;101529.81;5141001;27;20047;-84
2022/05/29 11:33:28;;;;;;;9.15;1.50;;;;;;;14.68;79.79;101476.78;5131772;27;20039;-84
2022/05/29 11:36:02;;;;;;;3.40;1.17;;;;;;;15.26;81.91;101523.44;5134289;27;20602;-84
2022/05/29 11:38:28;;;;;;;5.50;1.42;;;;;;;15.27;81.17;101508.50;5147153;27;20047;-84
2022/05/29 11:41:05;;;;;;;6.72;1.80;;;;;;;15.62;71.98;101503.41;5144088;27;20047;-84
2022/05/29 11:43:52;;;;;;;8.27;1.55;;;;;;;15.52;72.48;101479.19;5133108;27;20496;-84
2022/05/29 11:52:54;;;;;;;5.50;1.35;;;;;;;16.08;71.83;101488.03;5132675;27;20047;-86
2022/05/29 11:55:23;;;;;;;6.35;1.58;;;;;;;15.74;70.92;101474.66;5136255;27;20043;-85
2022/05/29 11:57:59;;;;;;;3.53;1.17;;;;;;;16.11;70.27;101474.66;5148976;27;20049;-85
2022/05/29 12:00:36;;;;;;;9.05;1.67;;;;;;;16.37;69.32;101483.09;5151283;27;20035;-85
2022/05/29 12:03:25;;;;;;;5.20;1.40;;;;;;;16.33;67.55;101461.25;5155967;27;20043;-85
2022/05/29 12:06:12;;;;;;;4.32;1.15;;;;;;;16.50;67.17;101469.19;5154904;27;20120;-85
2022/05/29 12:08:53;;;;;;;6.57;1.65;;;;;;;16.87;66.86;101466.44;5144596;27;20043;-85
2022/05/29 12:11:33;;;;;;;6.55;1.70;;;;;;;16.53;65.08;101462.88;5150582;27;20476;-85
2022/05/29 12:14:08;;;;;;;7.32;1.50;;;;;;;15.92;67.88;101465.00;5156444;27;20042;-85
2022/05/29 12:16:38;;;;;;;10.18;1.80;;;;;;;15.35;69.59;101459.75;5152534;27;20050;-85
2022/05/29 12:19:14;;;;;;;6.78;1.90;;;;;;;15.74;69.66;101421.88;5140349;27;20115;-85
2022/05/29 12:21:57;;;;;;;10.10;1.85;;;;;;;15.97;68.00;101442.78;5155268;27;20047;-84
2022/05/29 12:24:32;;;;;;;4.13;1.33;;;;;;;16.05;67.32;101445.91;5148395;27;20050;-85